Time;durP1;ratioP1;P1;durP2;ratioP2;P2;SDS_P1;SDS_P2;PMS_P1;PMS_P2;Temp;Humidity;BMP_temperature;BMP_pressure;BME280_temperature;BME280_humidity;BME280_pressure;Samples;Min_cycle;Max_cycle;Signal;HPM_P1;HPM_P2
2022/07/06 00:00:43;;;;;;;5.82;1.50;;;15.30;99.90;;;;;;5109583;28;20224;-61
2022/07/06 00:03:09;;;;;;;1.58;1.40;;;15.20;99.90;;;;;;5110248;28;20675;-61
2022/07/06 00:05:35;;;;;;;2.50;1.55;;;15.10;99.90;;;;;;5098534;28;20512;-61
2022/07/06 00:08:00;;;;;;;5.10;1.40;;;15.30;99.90;;;;;;5092853;28;20215;-60
2022/07/06 00:10:26;;;;;;;4.07;1.20;;;15.10;99.90;;;;;;5091701;28;20160;-60
2022/07/06 00:12:52;;;;;;;3.85;1.30;;;15.00;99.90;;;;;;5101239;28;20256;-62
2022/07/06 00:15:18;;;;;;;1.77;1.20;;;15.10;99.90;;;;;;5094187;28;20598;-61
2022/07/06 00:17:43;;;;;;;3.47;1.23;;;15.00;99.90;;;;;;5102830;28;20174;-62
2022/07/06 00:20:09;;;;;;;3.35;1.55;;;14.90;99.90;;;;;;5093223;28;20642;-62
2022/07/06 00:22:35;;;;;;;3.20;1.40;;;14.90;99.90;;;;;;5097154;28;20224;-62
2022/07/06 00:25:01;;;;;;;3.50;1.38;;;14.50;99.90;;;;;;5111501;28;20531;-62
2022/07/06 00:27:27;;;;;;;2.75;1.45;;;14.70;99.90;;;;;;5097607;28;20638;-61
2022/07/06 00:29:53;;;;;;;3.20;1.42;;;14.80;99.90;;;;;;5090798;28;20191;-62
2022/07/06 00:32:18;;;;;;;1.60;1.30;;;14.40;99.90;;;;;;5111392;28;20163;-60
2022/07/06 00:34:44;;;;;;;1.85;1.17;;;16.60;99.90;;;;;;5093291;28;20203;-60
2022/07/06 00:37:10;;;;;;;4.47;1.52;;;14.60;99.90;;;;;;5091044;28;20369;-60
2022/07/06 00:39:36;;;;;;;2.75;1.50;;;14.70;99.90;;;;;;5100854;28;20179;-60
2022/07/06 00:42:02;;;;;;;3.00;1.58;;;14.60;99.90;;;;;;5111586;28;20178;-60
2022/07/06 00:44:28;;;;;;;3.83;1.70;;;14.60;99.90;;;;;;5111447;28;20194;-60
2022/07/06 00:46:54;;;;;;;5.65;1.40;;;14.60;99.90;;;;;;5111070;28;20251;-60
2022/07/06 00:52:04;;;;;;;1.50;1.40;;;14.50;99.90;;;;;;5091234;28;20178;-60
2022/07/06 00:54:32;;;;;;;3.67;1.45;;;14.40;99.90;;;;;;5070448;28;20208;-60
2022/07/06 00:56:58;;;;;;;2.42;1.30;;;14.30;99.90;;;;;;5093427;28;20171;-61
2022/07/06 00:59:24;;;;;;;2.95;1.50;;;14.20;99.90;;;;;;5111371;28;20649;-61
2022/07/06 01:01:50;;;;;;;4.80;1.50;;;14.00;99.90;;;;;;5110848;28;20241;-60
2022/07/06 01:04:16;;;;;;;1.60;1.45;;;14.10;99.90;;;;;;5109652;28;20214;-61
2022/07/06 01:06:45;;;;;;;4.13;1.10;;;14.10;99.90;;;;;;5095848;28;20176;-61
2022/07/06 01:09:11;;;;;;;2.78;1.40;;;14.10;99.90;;;;;;5090897;28;20254;-61
2022/07/06 01:11:37;;;;;;;3.10;1.50;;;14.00;99.90;;;;;;5090909;28;20736;-61
2022/07/06 01:14:03;;;;;;;1.58;1.48;;;14.10;99.90;;;;;;5095521;28;20247;-60
2022/07/06 01:16:29;;;;;;;2.03;1.35;;;14.10;99.90;;;;;;5109364;28;20290;-61
2022/07/06 01:18:55;;;;;;;4.88;1.58;;;14.30;99.90;;;;;;5090860;28;20171;-60
2022/07/06 01:21:21;;;;;;;3.55;1.40;;;;;;;;;;5090897;28;20172;-61
2022/07/06 01:23:48;;;;;;;5.03;1.67;;;14.10;99.90;;;;;;5093345;28;20201;-62
2022/07/06 01:26:19;;;;;;;6.43;1.50;;;14.10;99.90;;;;;;5106971;28;20186;-61
2022/07/06 01:28:46;;;;;;;4.40;1.70;;;14.10;99.90;;;;;;5093060;28;20183;-61
2022/07/06 01:31:20;;;;;;;4.32;1.75;;;14.10;99.90;;;;;;5111205;28;20282;-61
2022/07/06 01:33:46;;;;;;;2.40;1.35;;;14.10;99.90;;;;;;5110586;28;20197;-61
2022/07/06 01:36:12;;;;;;;3.20;1.40;;;14.10;99.90;;;;;;5110909;28;20276;-61
2022/07/06 01:38:52;;;;;;;1.83;1.48;;;14.10;99.90;;;;;;5110696;28;20551;-60
2022/07/06 01:41:18;;;;;;;1.90;1.58;;;14.10;99.90;;;;;;5109122;28;20195;-61
2022/07/06 01:43:44;;;;;;;1.65;1.42;;;14.00;99.90;;;;;;5091150;28;20172;-61
2022/07/06 01:46:11;;;;;;;1.67;1.38;;;13.90;99.90;;;;;;5090375;28;20646;-61
2022/07/06 01:48:37;;;;;;;1.85;1.40;;;14.00;99.90;;;;;;5090440;28;20210;-61
2022/07/06 01:51:04;;;;;;;2.95;1.60;;;13.90;99.90;;;;;;5090575;28;20172;-61
2022/07/06 01:53:30;;;;;;;2.70;1.45;;;13.90;99.90;;;;;;5090549;28;20164;-61
2022/07/06 01:55:55;;;;;;;1.30;1.20;;;14.10;99.90;;;;;;5103631;28;20577;-61
2022/07/06 01:58:22;;;;;;;2.28;1.42;;;13.90;99.90;;;;;;5090579;28;20332;-61
2022/07/06 02:00:47;;;;;;;3.33;1.67;;;13.90;99.90;;;;;;5093607;28;20221;-61
2022/07/06 02:03:13;;;;;;;1.70;1.60;;;13.80;99.90;;;;;;5108897;28;20175;-61
2022/07/06 02:05:39;;;;;;;2.47;1.75;;;14.00;99.90;;;;;;5112639;28;20217;-61
2022/07/06 02:08:05;;;;;;;2.30;1.77;;;14.00;99.90;;;;;;5097132;28;20172;-61
2022/07/06 02:11:08;;;;;;;2.42;1.90;;;13.90;99.90;;;;;;5105942;28;20193;-60
2022/07/06 02:13:35;;;;;;;4.93;1.73;;;14.50;99.90;;;;;;5100763;28;20179;-61
2022/07/06 02:16:02;;;;;;;2.00;1.80;;;13.90;99.90;;;;;;5093636;28;20212;-61
2022/07/06 02:18:28;;;;;;;2.63;1.50;;;14.00;99.90;;;;;;5095426;28;20163;-61
2022/07/06 02:20:53;;;;;;;4.32;1.70;;;14.30;99.90;;;;;;5094908;28;20195;-61
2022/07/06 02:23:19;;;;;;;4.28;1.50;;;13.90;99.90;;;;;;5104010;28;20254;-62
2022/07/06 02:25:45;;;;;;;1.75;1.40;;;14.10;99.90;;;;;;5094068;28;20168;-61
2022/07/06 02:28:11;;;;;;;3.28;1.42;;;14.50;99.90;;;;;;5093451;28;20179;-60
2022/07/06 02:30:36;;;;;;;1.95;1.52;;;14.40;99.90;;;;;;5092294;28;20167;-61
2022/07/06 02:33:02;;;;;;;1.95;1.35;;;14.40;99.90;;;;;;5093297;28;20175;-61
2022/07/06 02:35:28;;;;;;;3.05;1.38;;;14.40;99.90;;;;;;5109740;28;20241;-60
2022/07/06 02:37:54;;;;;;;2.60;1.60;;;14.40;99.90;;;;;;5098250;28;20208;-60
2022/07/06 02:40:20;;;;;;;1.60;1.30;;;14.40;99.90;;;;;;5106190;28;20180;-60
2022/07/06 02:42:45;;;;;;;1.50;1.40;;;14.40;99.90;;;;;;5093148;28;20168;-60
2022/07/06 02:45:11;;;;;;;2.50;1.58;;;14.40;99.90;;;;;;5091957;28;20169;-60
2022/07/06 02:47:37;;;;;;;2.38;1.33;;;14.30;99.90;;;;;;5111047;28;20349;-60
2022/07/06 02:50:04;;;;;;;3.20;1.50;;;14.50;99.90;;;;;;5096659;28;20172;-60
2022/07/06 02:52:30;;;;;;;5.28;1.35;;;14.80;99.90;;;;;;5093435;28;20237;-60
2022/07/06 02:54:56;;;;;;;2.55;1.40;;;14.40;99.90;;;;;;5109356;28;20642;-60
2022/07/06 02:57:22;;;;;;;1.58;1.48;;;14.40;99.90;;;;;;5106919;28;20638;-61
2022/07/06 02:59:49;;;;;;;2.38;1.50;;;14.50;99.90;;;;;;5096607;28;20175;-60
2022/07/06 03:02:17;;;;;;;2.13;1.27;;;14.40;99.90;;;;;;5113388;28;20251;-60
2022/07/06 03:04:43;;;;;;;3.20;1.42;;;14.50;99.90;;;;;;5094184;28;20260;-61
2022/07/06 03:07:08;;;;;;;1.70;1.60;;;14.50;99.90;;;;;;5095831;28;20182;-61
2022/07/06 03:09:34;;;;;;;5.53;1.38;;;14.40;99.90;;;;;;5098524;28;20176;-60
2022/07/06 03:12:00;;;;;;;4.07;1.70;;;14.40;99.90;;;;;;5090579;28;20194;-60
2022/07/06 03:14:26;;;;;;;3.22;1.80;;;14.10;99.90;;;;;;5095535;28;20720;-60
2022/07/06 03:16:53;;;;;;;3.90;1.70;;;14.20;99.90;;;;;;5106227;28;20171;-60
2022/07/06 03:19:18;;;;;;;2.25;1.70;;;14.30;99.90;;;;;;5102649;28;20266;-60
2022/07/06 03:21:44;;;;;;;3.03;1.58;;;14.40;99.90;;;;;;5112298;28;20202;-61
2022/07/06 03:24:10;;;;;;;2.90;1.75;;;14.10;99.90;;;;;;5112771;28;20742;-61
2022/07/06 03:26:36;;;;;;;3.03;1.90;;;14.50;99.90;;;;;;5097735;28;20191;-61
2022/07/06 03:29:02;;;;;;;3.22;1.52;;;14.40;99.90;;;;;;5092382;28;20198;-60
2022/07/06 03:31:27;;;;;;;1.98;1.70;;;14.40;99.90;;;;;;5092410;28;20692;-61
2022/07/06 03:33:53;;;;;;;3.08;1.92;;;14.40;99.90;;;;;;5092230;28;20677;-60
2022/07/06 03:36:19;;;;;;;3.65;1.60;;;14.40;99.90;;;;;;5092103;28;20223;-61
2022/07/06 03:38:45;;;;;;;2.88;1.50;;;14.40;99.90;;;;;;5101363;28;20174;-61
2022/07/06 03:41:11;;;;;;;3.17;1.85;;;14.40;99.90;;;;;;5112266;28;20541;-61
2022/07/06 03:43:37;;;;;;;2.78;1.70;;;14.30;99.90;;;;;;5109747;28;20170;-60
2022/07/06 03:46:03;;;;;;;2.30;1.60;;;14.30;99.90;;;;;;5092181;28;20175;-62
2022/07/06 03:48:29;;;;;;;1.90;1.52;;;14.30;99.90;;;;;;5096866;28;20170;-61
2022/07/06 03:50:55;;;;;;;1.95;1.50;;;14.30;99.90;;;;;;5113092;28;20633;-61
2022/07/06 03:53:21;;;;;;;2.00;1.50;;;14.30;99.90;;;;;;5109178;28;20164;-62
2022/07/06 03:56:27;;;;;;;4.57;1.92;;;12.70;99.90;;;;;;5105325;28;20768;-61
2022/07/06 03:58:33;;;;;;;5.60;1.75;;;14.20;99.90;;;;;;5094704;28;20237;-61
2022/07/06 04:00:58;;;;;;;5.47;2.05;;;14.20;99.90;;;;;;5109952;28;20167;-61
2022/07/06 04:03:24;;;;;;;3.65;1.90;;;14.20;99.90;;;;;;5094454;28;20178;-61
2022/07/06 04:05:50;;;;;;;2.00;1.73;;;14.20;99.90;;;;;;5107048;28;20187;-61
2022/07/06 04:08:16;;;;;;;2.72;2.08;;;14.20;99.90;;;;;;5108284;28;20175;-62
2022/07/06 04:10:42;;;;;;;3.72;2.08;;;14.20;99.90;;;;;;5091661;28;20249;-62
2022/07/06 04:13:07;;;;;;;4.78;1.80;;;14.30;99.90;;;;;;5091337;28;20176;-61
2022/07/06 04:15:33;;;;;;;2.85;2.15;;;14.20;99.90;;;;;;5102243;28;20213;-61
2022/07/06 04:17:59;;;;;;;2.20;1.75;;;14.20;99.90;;;;;;5111727;28;20167;-62
2022/07/06 04:20:25;;;;;;;4.13;2.00;;;14.20;99.90;;;;;;5112161;28;20182;-61
2022/07/06 04:22:52;;;;;;;3.63;1.95;;;14.20;99.90;;;;;;5111905;28;20156;-61
2022/07/06 04:25:18;;;;;;;5.00;2.33;;;14.10;99.90;;;;;;5111697;28;20182;-61
2022/07/06 04:27:44;;;;;;;3.30;1.92;;;14.20;99.90;;;;;;5104691;27;20179;-61
2022/07/06 04:30:11;;;;;;;2.83;2.30;;;14.20;99.90;;;;;;5094561;28;20180;-62
2022/07/06 04:32:37;;;;;;;7.03;2.03;;;14.10;99.90;;;;;;5091214;28;20183;-62
2022/07/06 04:35:04;;;;;;;3.92;1.83;;;14.10;99.90;;;;;;5091188;28;20208;-62
2022/07/06 04:37:29;;;;;;;3.65;2.38;;;14.10;99.90;;;;;;5090877;28;20303;-62
2022/07/06 04:39:55;;;;;;;4.85;2.20;;;14.10;99.90;;;;;;5101497;28;20250;-62
2022/07/06 04:42:21;;;;;;;4.45;2.35;;;14.20;99.90;;;;;;5111439;28;20167;-61
2022/07/06 04:44:47;;;;;;;3.45;2.28;;;14.20;99.90;;;;;;5103208;28;20171;-62
2022/07/06 04:47:13;;;;;;;3.20;2.05;;;14.30;99.90;;;;;;5091117;28;20703;-62
2022/07/06 04:49:39;;;;;;;5.82;2.47;;;14.30;99.90;;;;;;5091038;28;20168;-64
2022/07/06 04:52:05;;;;;;;3.97;2.47;;;14.30;99.90;;;;;;5090881;28;20198;-62
2022/07/06 04:54:31;;;;;;;6.25;2.60;;;14.30;99.90;;;;;;5103629;28;20207;-62
2022/07/06 04:56:57;;;;;;;7.57;2.15;;;14.40;99.90;;;;;;5109631;28;20236;-62
2022/07/06 04:59:23;;;;;;;6.88;2.42;;;14.50;99.90;;;;;;5097432;28;20229;-63
2022/07/06 05:01:48;;;;;;;5.43;2.38;;;14.60;99.90;;;;;;5099098;28;20209;-62
2022/07/06 05:04:14;;;;;;;2.90;2.30;;;14.70;99.90;;;;;;5111052;28;20179;-62
2022/07/06 05:06:40;;;;;;;5.57;2.45;;;14.80;99.90;;;;;;5111506;28;20254;-62
2022/07/06 05:09:06;;;;;;;6.65;2.65;;;14.90;99.90;;;;;;5109553;28;20167;-62
2022/07/06 05:11:32;;;;;;;6.03;2.58;;;15.00;99.90;;;;;;5110622;28;20559;-62
2022/07/06 05:13:58;;;;;;;8.50;2.75;;;15.00;99.90;;;;;;5105980;28;20204;-62
2022/07/06 05:16:24;;;;;;;6.85;2.50;;;15.10;99.90;;;;;;5110989;28;20171;-62
2022/07/06 05:18:49;;;;;;;4.43;2.47;;;15.10;99.90;;;;;;5111305;28;20163;-62
2022/07/06 05:21:15;;;;;;;7.97;3.00;;;15.20;99.90;;;;;;5111198;28;20667;-62
2022/07/06 05:23:41;;;;;;;7.35;2.88;;;15.30;99.90;;;;;;5101903;28;20176;-61
2022/07/06 05:26:07;;;;;;;7.40;2.70;;;15.40;99.90;;;;;;5094427;28;20195;-61
2022/07/06 05:28:33;;;;;;;5.95;2.90;;;15.40;99.90;;;;;;5110664;28;20238;-63
2022/07/06 05:30:59;;;;;;;7.22;2.88;;;15.50;99.90;;;;;;5111076;28;20262;-62
2022/07/06 05:33:28;;;;;;;7.88;3.47;;;15.50;99.90;;;;;;5110874;28;20174;-63
2022/07/06 05:35:53;;;;;;;7.03;3.17;;;15.60;99.90;;;;;;5114426;28;20242;-63
2022/07/06 05:38:19;;;;;;;4.93;3.28;;;15.60;99.90;;;;;;5109600;28;20187;-63
2022/07/06 05:40:45;;;;;;;4.03;3.30;;;15.70;99.90;;;;;;5094532;28;20585;-63
2022/07/06 05:43:11;;;;;;;5.32;3.40;;;15.70;99.90;;;;;;5094376;28;20644;-63
2022/07/06 05:45:37;;;;;;;6.35;3.67;;;15.90;99.90;;;;;;5094378;28;20507;-64
2022/07/06 05:50:47;;;;;;;4.47;2.90;;;16.10;99.90;;;;;;5094546;28;20187;-64
2022/07/06 05:53:13;;;;;;;5.45;2.92;;;16.30;99.90;;;;;;5109067;28;20533;-63
2022/07/06 05:55:39;;;;;;;6.95;3.05;;;16.30;99.90;;;;;;5097795;28;20702;-64
2022/07/06 05:58:05;;;;;;;3.75;2.78;;;16.30;99.90;;;;;;5114581;28;20179;-63
2022/07/06 06:00:31;;;;;;;3.90;2.90;;;16.40;99.90;;;;;;5114486;28;20254;-64
2022/07/06 06:02:58;;;;;;;6.22;3.03;;;16.50;99.90;;;;;;5114660;28;20178;-63
2022/07/06 06:05:24;;;;;;;5.07;3.00;;;16.50;99.90;;;;;;5112661;28;20164;-63
2022/07/06 06:07:51;;;;;;;6.30;3.17;;;16.60;99.90;;;;;;5110705;28;20244;-63
2022/07/06 06:10:18;;;;;;;4.07;3.55;;;16.60;99.90;;;;;;5114367;28;20169;-63
2022/07/06 06:12:45;;;;;;;6.78;2.83;;;16.70;99.90;;;;;;5114253;27;20211;-63
2022/07/06 06:15:11;;;;;;;4.13;2.65;;;16.70;99.90;;;;;;5112635;28;20282;-64
2022/07/06 06:17:38;;;;;;;11.35;3.10;;;16.70;99.90;;;;;;5114198;28;20164;-63
2022/07/06 06:20:06;;;;;;;5.05;2.28;;;16.80;99.90;;;;;;5111995;28;20163;-64
2022/07/06 06:22:45;;;;;;;5.85;2.85;;;16.90;99.90;;;;;;5097814;28;20200;-63
2022/07/06 06:25:11;;;;;;;5.32;2.50;;;17.10;99.90;;;;;;5093635;28;20253;-64
2022/07/06 06:27:37;;;;;;;5.10;2.80;;;17.30;99.90;;;;;;5093719;28;20325;-64
2022/07/06 06:30:03;;;;;;;5.65;2.47;;;17.50;99.90;;;;;;5093477;28;20183;-64
2022/07/06 06:32:29;;;;;;;3.92;2.40;;;17.40;99.90;;;;;;5093362;28;20160;-64
2022/07/06 06:34:55;;;;;;;5.07;2.20;;;17.40;99.90;;;;;;5094009;28;20214;-63
2022/07/06 06:37:21;;;;;;;3.08;2.20;;;17.40;99.90;;;;;;5092593;28;20234;-65
2022/07/06 06:39:46;;;;;;;3.05;2.13;;;17.40;99.90;;;;;;5093347;28;20720;-65
2022/07/06 06:42:12;;;;;;;6.47;2.42;;;17.50;99.90;;;;;;5094246;28;20701;-60
2022/07/06 06:44:38;;;;;;;2.60;2.03;;;17.60;99.90;;;;;;5105629;28;20204;-61
2022/07/06 06:47:04;;;;;;;5.15;2.35;;;17.80;99.90;;;;;;5091974;28;20164;-61
2022/07/06 06:49:29;;;;;;;8.30;2.05;;;17.90;99.90;;;;;;5094660;28;20187;-61
2022/07/06 06:51:55;;;;;;;5.45;2.50;;;18.10;99.90;;;;;;5092596;28;20552;-61
2022/07/06 06:54:21;;;;;;;2.17;1.92;;;18.30;99.90;;;;;;5092986;28;20213;-61
2022/07/06 06:56:47;;;;;;;6.05;2.03;;;18.30;99.90;;;;;;5095295;28;20180;-61
2022/07/06 06:59:12;;;;;;;4.28;1.67;;;18.40;99.90;;;;;;5101974;28;20176;-61
2022/07/06 07:01:38;;;;;;;2.63;1.85;;;18.60;99.90;;;;;;5111587;28;20235;-62
2022/07/06 07:04:05;;;;;;;3.00;1.88;;;18.70;99.90;;;;;;5105294;28;20243;-61
2022/07/06 07:06:32;;;;;;;3.25;1.92;;;18.70;99.90;;;;;;5094452;28;20706;-61
2022/07/06 07:08:58;;;;;;;3.20;1.70;;;18.90;99.90;;;;;;5092763;28;20160;-60
2022/07/06 07:11:24;;;;;;;2.55;1.55;;;19.00;99.90;;;;;;5087453;28;20176;-61
2022/07/06 07:13:50;;;;;;;2.85;1.60;;;19.00;99.90;;;;;;5072451;28;20184;-60
2022/07/06 07:16:16;;;;;;;3.95;2.00;;;19.00;99.90;;;;;;5072562;28;20263;-60
2022/07/06 07:18:42;;;;;;;3.35;1.60;;;19.10;99.90;;;;;;5072220;28;20169;-61
2022/07/06 07:21:08;;;;;;;1.75;1.40;;;19.30;99.90;;;;;;5077333;28;20187;-61
2022/07/06 07:23:34;;;;;;;3.95;1.73;;;19.30;99.90;;;;;;5092687;28;20168;-62
2022/07/06 07:26:00;;;;;;;3.33;1.52;;;19.40;99.90;;;;;;5092463;28;20171;-61
2022/07/06 07:28:25;;;;;;;2.45;1.48;;;19.40;99.90;;;;;;5102200;28;20258;-61
2022/07/06 07:30:51;;;;;;;3.92;1.55;;;19.40;99.90;;;;;;5112600;28;20664;-61
2022/07/06 07:33:17;;;;;;;3.88;1.67;;;19.20;99.90;;;;;;5112616;28;20617;-61
2022/07/06 07:35:43;;;;;;;2.35;1.70;;;19.10;99.90;;;;;;5110970;28;20214;-62
2022/07/06 07:38:08;;;;;;;3.83;1.92;;;19.00;99.90;;;;;;5112946;28;20247;-62
2022/07/06 07:40:35;;;;;;;3.33;1.80;;;18.70;99.90;;;;;;5112728;27;20171;-60
2022/07/06 07:43:01;;;;;;;6.43;2.00;;;18.80;99.90;;;;;;5112782;28;20630;-61
2022/07/06 07:45:27;;;;;;;6.50;2.15;;;18.80;99.90;;;;;;5112628;28;20246;-60
2022/07/06 07:47:53;;;;;;;4.63;1.80;;;18.80;99.90;;;;;;5112549;28;20254;-61
2022/07/06 07:50:18;;;;;;;7.47;1.98;;;18.90;99.90;;;;;;5112634;28;20198;-61
2022/07/06 07:52:44;;;;;;;7.43;2.28;;;19.00;99.90;;;;;;5099240;28;20167;-60
2022/07/06 07:55:11;;;;;;;4.28;1.70;;;18.90;99.90;;;;;;5098200;28;20214;-58
2022/07/06 07:57:37;;;;;;;6.32;1.98;;;19.20;99.90;;;;;;5093101;28;20172;-60
2022/07/06 08:00:04;;;;;;;2.95;2.22;;;19.60;99.90;;;;;;5112400;28;20191;-60
2022/07/06 08:02:30;;;;;;;3.33;1.83;;;19.70;99.90;;;;;;5106389;28;20164;-60
2022/07/06 08:04:55;;;;;;;4.72;1.60;;;19.80;99.90;;;;;;5096890;27;20184;-61
2022/07/06 08:07:21;;;;;;;2.85;1.58;;;20.10;99.90;;;;;;5090433;28;20171;-62
2022/07/06 08:09:47;;;;;;;2.78;1.90;;;20.30;99.90;;;;;;5111391;28;20175;-62
2022/07/06 08:12:13;;;;;;;2.78;1.63;;;20.50;99.90;;;;;;5097572;28;20655;-62
2022/07/06 08:14:38;;;;;;;1.92;1.40;;;20.50;99.90;;;;;;5091502;28;20208;-61
2022/07/06 08:17:04;;;;;;;1.88;1.15;;;20.60;99.90;;;;;;5091616;28;20219;-62
2022/07/06 08:19:30;;;;;;;1.02;0.90;;;20.80;99.90;;;;;;5093808;28;20257;-62
2022/07/06 08:21:57;;;;;;;2.20;1.10;;;21.00;99.90;;;;;;5091056;28;20172;-61
2022/07/06 08:24:22;;;;;;;2.50;1.10;;;21.00;99.90;;;;;;5089539;28;20176;-61
2022/07/06 08:26:48;;;;;;;5.65;1.10;;;20.60;99.90;;;;;;5089642;28;20168;-61
2022/07/06 08:29:14;;;;;;;1.55;1.00;;;20.60;99.90;;;;;;5089515;28;20179;-61
2022/07/06 08:31:40;;;;;;;1.77;1.10;;;20.40;99.90;;;;;;5089403;28;20164;-62
2022/07/06 08:34:06;;;;;;;1.92;1.38;;;20.30;99.90;;;;;;5089315;28;20195;-62
2022/07/06 08:36:33;;;;;;;2.28;1.08;;;20.20;99.90;;;;;;5089231;28;20228;-61
2022/07/06 08:38:59;;;;;;;3.78;1.13;;;20.30;99.90;;;;;;5090684;28;20243;-61
2022/07/06 08:41:28;;;;;;;3.88;0.90;;;20.40;99.90;;;;;;5091175;28;20191;-61
2022/07/06 08:43:54;;;;;;;1.10;0.90;;;20.40;99.90;;;;;;5091165;28;20207;-61
2022/07/06 08:46:21;;;;;;;1.58;0.88;;;20.40;99.90;;;;;;5091091;28;20190;-61
2022/07/06 08:48:48;;;;;;;2.47;1.00;;;20.30;99.90;;;;;;5091615;28;20171;-61
2022/07/06 08:51:14;;;;;;;1.80;1.02;;;20.70;99.90;;;;;;5091596;28;20182;-62
2022/07/06 08:53:45;;;;;;;2.40;1.10;;;21.60;99.90;;;;;;5091151;28;20221;-61
2022/07/06 08:56:11;;;;;;;3.15;1.10;;;21.60;99.90;;;;;;5091227;28;20585;-61
2022/07/06 08:58:41;;;;;;;1.52;0.98;;;21.80;99.90;;;;;;5091172;28;20182;-61
2022/07/06 09:01:08;;;;;;;2.83;1.00;;;21.80;99.90;;;;;;5091239;28;20189;-61
2022/07/06 09:03:35;;;;;;;3.90;1.10;;;22.00;99.90;;;;;;5091285;28;20255;-61
2022/07/06 09:06:03;;;;;;;3.17;1.20;;;22.10;99.90;;;;;;5091343;28;20171;-61
2022/07/06 09:08:31;;;;;;;2.63;1.40;;;21.80;99.90;;;;;;5091045;28;20601;-61
2022/07/06 09:10:56;;;;;;;5.13;1.13;;;21.50;99.90;;;;;;5091429;28;20686;-61
2022/07/06 09:13:22;;;;;;;4.60;1.13;;;22.00;99.90;;;;;;5091692;28;20255;-61
2022/07/06 09:15:48;;;;;;;2.25;1.00;;;22.20;99.90;;;;;;5091506;28;20211;-61
2022/07/06 09:18:14;;;;;;;2.28;1.20;;;22.10;99.90;;;;;;5091688;28;20164;-61
2022/07/06 09:20:43;;;;;;;1.13;1.00;;;22.40;99.90;;;;;;5091280;28;20646;-61
2022/07/06 09:23:31;;;;;;;5.47;1.50;;;22.50;99.90;;;;;;5091043;28;20652;-61
2022/07/06 09:25:57;;;;;;;2.30;1.20;;;22.60;99.90;;;;;;5092668;28;20172;-61
2022/07/06 09:28:45;;;;;;;2.03;0.93;;;22.80;99.90;;;;;;5091547;28;20168;-61
2022/07/06 09:31:11;;;;;;;3.80;1.00;;;22.90;99.90;;;;;;5090980;28;20156;-61
2022/07/06 09:33:37;;;;;;;2.72;0.90;;;22.20;99.90;;;;;;5090417;28;20163;-61
2022/07/06 09:36:05;;;;;;;2.03;0.90;;;22.10;99.90;;;;;;5090690;28;20612;-61
2022/07/06 09:38:31;;;;;;;1.75;0.90;;;22.20;99.90;;;;;;5091032;28;20222;-61
2022/07/06 09:40:57;;;;;;;3.40;0.93;;;22.40;99.90;;;;;;5091084;28;20631;-61
2022/07/06 09:43:24;;;;;;;2.28;1.10;;;22.40;99.90;;;;;;5092033;28;20175;-61
2022/07/06 09:46:05;;;;;;;2.40;1.00;;;22.60;99.90;;;;;;5090357;28;20168;-62
2022/07/06 09:48:31;;;;;;;4.63;1.05;;;22.40;99.90;;;;;;5090361;28;20704;-62
2022/07/06 09:51:06;;;;;;;2.60;0.80;;;22.70;99.90;;;;;;5090580;28;20259;-61
2022/07/06 09:53:35;;;;;;;1.20;0.95;;;22.70;99.90;;;;;;5090634;28;20183;-61
2022/07/06 09:56:04;;;;;;;1.50;0.68;;;22.40;99.90;;;;;;5090622;28;20226;-60
2022/07/06 09:58:30;;;;;;;2.50;0.98;;;22.60;99.90;;;;;;5089359;28;20176;-60
2022/07/06 10:00:56;;;;;;;0.88;0.68;;;22.40;99.90;;;;;;5091174;28;20175;-60
2022/07/06 10:03:23;;;;;;;1.92;0.90;;;23.00;99.90;;;;;;5092325;28;20172;-60
2022/07/06 10:05:49;;;;;;;1.85;0.70;;;22.70;99.90;;;;;;5091005;28;20184;-60
2022/07/06 10:08:17;;;;;;;3.08;0.73;;;22.80;99.90;;;;;;5090406;28;20270;-61
2022/07/06 10:10:44;;;;;;;2.90;0.80;;;22.90;99.90;;;;;;5090622;28;20179;-60
2022/07/06 10:13:12;;;;;;;5.90;1.00;;;23.50;99.90;;;;;;5090395;28;20167;-61
2022/07/06 10:15:39;;;;;;;2.00;0.90;;;23.60;99.90;;;;;;5090329;28;20341;-60
2022/07/06 10:18:08;;;;;;;1.95;0.90;;;24.00;99.90;;;;;;5090197;28;20168;-60
2022/07/06 10:20:37;;;;;;;3.15;0.85;;;24.20;99.90;;;;;;5091585;28;20168;-60
2022/07/06 10:23:05;;;;;;;2.78;1.00;;;24.30;99.90;;;;;;5094192;28;20265;-61
2022/07/06 10:25:33;;;;;;;1.45;0.80;;;24.60;99.90;;;;;;5093835;28;20164;-60
2022/07/06 10:28:01;;;;;;;4.20;1.00;;;24.50;99.90;;;;;;5093845;28;20180;-60
2022/07/06 10:30:28;;;;;;;3.17;1.10;;;24.30;99.90;;;;;;5094210;28;20164;-60
2022/07/06 10:32:56;;;;;;;3.45;1.05;;;23.70;99.90;;;;;;5093754;28;20212;-60
2022/07/06 10:35:22;;;;;;;3.58;1.33;;;23.20;99.90;;;;;;5093603;28;20239;-60
2022/07/06 10:38:07;;;;;;;1.92;1.13;;;23.20;99.90;;;;;;5093512;28;20247;-60
2022/07/06 10:43:42;;;;;;;4.10;1.65;;;24.00;99.90;;;;;;5093823;28;20684;-60
2022/07/06 10:46:13;;;;;;;1.42;1.27;;;24.20;99.90;;;;;;5093496;28;20168;-60
2022/07/06 10:48:43;;;;;;;1.63;0.93;;;24.10;99.90;;;;;;5093470;28;20176;-61
2022/07/06 10:51:12;;;;;;;1.10;0.70;;;24.00;99.90;;;;;;5093374;28;20172;-61
2022/07/06 10:53:40;;;;;;;2.28;0.82;;;24.50;99.90;;;;;;5095699;28;20167;-60
2022/07/06 10:56:11;;;;;;;1.77;1.02;;;24.30;99.90;;;;;;5093890;28;20223;-61
2022/07/06 10:58:49;;;;;;;3.53;1.17;;;24.50;99.90;;;;;;5093224;28;20637;-61
2022/07/06 11:01:16;;;;;;;2.50;1.02;;;24.70;99.90;;;;;;5100485;28;20252;-61
2022/07/06 11:03:58;;;;;;;1.45;0.70;;;24.80;99.90;;;;;;5092408;28;20198;-61
2022/07/06 11:06:25;;;;;;;1.58;0.70;;;24.70;99.90;;;;;;5113825;28;20211;-61
2022/07/06 11:09:01;;;;;;;1.63;0.70;;;24.60;99.90;;;;;;5111922;28;20171;-61
2022/07/06 11:11:32;;;;;;;2.17;1.00;;;25.00;99.90;;;;;;5111926;28;20221;-61
2022/07/06 11:14:09;;;;;;;3.33;0.70;;;25.40;99.90;;;;;;5107311;28;20258;-61
2022/07/06 11:17:02;;;;;;;2.13;0.70;;;25.50;99.90;;;;;;5113272;27;20190;-61
2022/07/06 11:19:28;;;;;;;1.23;0.65;;;25.40;99.90;;;;;;5110800;28;20183;-61
2022/07/06 11:22:05;;;;;;;2.40;0.73;;;25.20;99.90;;;;;;5111004;28;20269;-61
2022/07/06 11:24:33;;;;;;;2.55;0.60;;;25.40;99.90;;;;;;5092711;28;20180;-61
2022/07/06 11:27:00;;;;;;;1.60;0.73;;;25.30;99.90;;;;;;5108543;28;20207;-61
2022/07/06 11:29:28;;;;;;;3.25;0.80;;;24.90;99.90;;;;;;5110808;28;20202;-61
2022/07/06 11:31:55;;;;;;;1.83;0.70;;;25.40;99.90;;;;;;5110571;28;20167;-61
2022/07/06 11:34:33;;;;;;;1.48;0.80;;;25.60;99.90;;;;;;5111268;28;20210;-61
2022/07/06 11:37:04;;;;;;;1.70;0.80;;;25.10;99.90;;;;;;5110664;28;20222;-61
2022/07/06 11:39:32;;;;;;;5.10;0.80;;;25.30;99.90;;;;;;5112752;28;20220;-61
2022/07/06 11:42:00;;;;;;;1.15;0.50;;;23.90;99.90;;;;;;5111467;28;20169;-61
2022/07/06 11:44:26;;;;;;;0.98;0.55;;;23.80;99.90;;;;;;5112256;28;20250;-61
2022/07/06 11:46:54;;;;;;;2.03;0.70;;;24.00;99.90;;;;;;5111023;28;20242;-61
2022/07/06 11:49:20;;;;;;;1.35;0.60;;;24.50;99.90;;;;;;5110843;28;20274;-61
2022/07/06 11:51:47;;;;;;;1.30;0.60;;;25.50;99.90;;;;;;5110844;28;20247;-61
2022/07/06 11:54:17;;;;;;;2.05;0.77;;;26.20;99.90;;;;;;5110858;28;20705;-61
2022/07/06 11:57:07;;;;;;;2.20;0.55;;;26.20;99.90;;;;;;5111204;28;20194;-61
2022/07/06 11:59:35;;;;;;;1.42;0.68;;;25.60;99.90;;;;;;5109513;28;20544;-60
2022/07/06 12:02:03;;;;;;;1.42;0.60;;;25.50;99.90;;;;;;5112305;28;20246;-60
2022/07/06 12:04:31;;;;;;;1.63;0.98;;;25.30;99.90;;;;;;5112294;28;20209;-60
2022/07/06 12:07:04;;;;;;;2.92;0.90;;;25.40;99.90;;;;;;5112422;28;20192;-60
2022/07/06 12:09:32;;;;;;;0.88;0.65;;;25.20;99.90;;;;;;5112223;28;20664;-61
2022/07/06 12:12:02;;;;;;;3.92;1.33;;;25.80;99.90;;;;;;5112204;28;20166;-60
2022/07/06 12:14:28;;;;;;;5.55;1.42;;;26.20;99.90;;;;;;5112104;28;20233;-61
2022/07/06 12:16:54;;;;;;;5.05;1.10;;;26.40;99.90;;;;;;5112071;28;20175;-61
2022/07/06 12:19:22;;;;;;;3.00;1.08;;;26.50;99.90;;;;;;5112042;28;20174;-61
2022/07/06 12:21:50;;;;;;;4.05;1.00;;;26.70;99.90;;;;;;5112012;28;20401;-61
2022/07/06 12:24:24;;;;;;;3.90;1.10;;;27.30;99.90;;;;;;5111868;28;20199;-61
2022/07/06 12:26:52;;;;;;;4.80;1.10;;;27.70;99.90;;;;;;5111845;28;20167;-61
2022/07/06 12:29:18;;;;;;;4.95;1.23;;;28.30;99.90;;;;;;5111809;28;20175;-61
2022/07/06 12:31:55;;;;;;;3.42;1.17;;;27.70;99.90;;;;;;5112857;28;20168;-63
2022/07/06 12:34:23;;;;;;;3.00;1.30;;;26.90;99.90;;;;;;5105951;28;20194;-62
2022/07/06 12:36:56;;;;;;;5.35;1.10;;;26.60;99.90;;;;;;5108662;28;20215;-63
2022/07/06 12:39:24;;;;;;;4.00;1.30;;;26.30;99.90;;;;;;5111287;28;20646;-62
2022/07/06 12:41:58;;;;;;;5.35;1.10;;;26.40;99.90;;;;;;5105345;28;20167;-61
2022/07/06 12:44:25;;;;;;;5.28;1.27;;;27.30;99.90;;;;;;5094930;28;20176;-62
2022/07/06 12:47:02;;;;;;;6.82;1.38;;;27.50;99.90;;;;;;5097155;28;20171;-64
2022/07/06 12:49:28;;;;;;;5.00;1.55;;;27.60;99.90;;;;;;5095378;28;20191;-61
2022/07/06 12:51:58;;;;;;;3.63;1.00;;;27.20;99.90;;;;;;5090775;28;20168;-61
2022/07/06 12:54:29;;;;;;;3.72;1.35;;;27.40;99.90;;;;;;5105881;28;20191;-61
2022/07/06 12:57:06;;;;;;;3.22;1.25;;;27.30;99.90;;;;;;5102256;28;20194;-61